createdAt,value
2018-01-29T00:00:40.238Z,38.8
2018-01-29T00:01:40.201Z,38.3
2018-01-29T00:02:40.097Z,38.1
2018-01-29T00:03:40.065Z,38.4
2018-01-29T00:04:39.978Z,38.3
2018-01-29T00:05:39.907Z,38.4
2018-01-29T00:06:39.842Z,38.8
2018-01-29T00:07:39.786Z,38.7
2018-01-29T00:08:39.682Z,38.9
2018-01-29T00:09:39.650Z,38.9
2018-01-29T00:10:39.544Z,39
2018-01-29T00:11:39.493Z,39.2
2018-01-29T00:12:39.441Z,39.2
2018-01-29T00:13:39.337Z,39.4
2018-01-29T00:14:39.287Z,39.5
2018-01-29T00:15:39.226Z,39.6
2018-01-29T00:16:39.153Z,39.8
2018-01-29T00:17:39.080Z,39.8
2018-01-29T00:18:39.027Z,39.9
2018-01-29T00:19:38.922Z,40
2018-01-29T00:20:38.853Z,40.1
2018-01-29T00:21:38.804Z,40.2
2018-01-29T00:22:38.740Z,40.3
2018-01-29T00:23:38.663Z,40.4
2018-01-29T00:24:38.597Z,40.5
2018-01-29T00:25:38.542Z,40.6
2018-01-29T00:26:38.437Z,40.7
2018-01-29T00:27:38.390Z,40.8
2018-01-29T00:28:38.335Z,40.8
2018-01-29T00:29:38.231Z,40.9
2018-01-29T00:30:38.200Z,41
2018-01-29T00:31:38.094Z,41.1
2018-01-29T00:32:38.043Z,41.2
2018-01-29T00:33:38.027Z,41.3
2018-01-29T00:34:37.905Z,41.4
2018-01-29T00:35:37.834Z,41.4
2018-01-29T00:36:37.783Z,41.6
2018-01-29T00:37:37.678Z,41.6
2018-01-29T00:38:37.644Z,41.8
2018-01-29T00:39:37.559Z,41.8
2018-01-29T00:40:37.489Z,41.9
2018-01-29T00:41:37.404Z,42
2018-01-29T00:42:37.377Z,42.1
2018-01-29T00:43:37.288Z,42.2
2018-01-29T00:44:37.213Z,42.3
2018-01-29T00:45:37.144Z,42.3
2018-01-29T00:46:37.055Z,42.4
2018-01-29T00:47:37.020Z,42.5
2018-01-29T00:48:36.937Z,42.6
2018-01-29T00:49:36.867Z,42.7
2018-01-29T00:50:36.817Z,42.8
2018-01-29T00:51:36.708Z,42.9
2018-01-29T00:52:36.640Z,42.9
2018-01-29T00:53:36.588Z,43
2018-01-29T00:54:36.521Z,43.1
2018-01-29T00:55:36.469Z,43.2
2018-01-29T00:56:36.363Z,43.3
2018-01-29T00:57:36.312Z,43.4
2018-01-29T00:58:36.248Z,43.4
2018-01-29T00:59:36.174Z,43.6
2018-01-29T01:00:36.123Z,43.6
2018-01-29T01:01:36.017Z,43.1
2018-01-29T01:02:35.947Z,42.9
2018-01-29T01:03:35.914Z,43.3
2018-01-29T01:04:35.828Z,43.1
2018-01-29T01:05:35.762Z,43.4
2018-01-29T01:06:35.690Z,43.5
2018-01-29T01:07:35.621Z,43.5
2018-01-29T01:08:35.568Z,43.8
2018-01-29T01:09:35.488Z,43.7
2018-01-29T01:10:35.417Z,43.9
2018-01-29T01:11:35.326Z,43.9
2018-01-29T01:12:35.291Z,44
2018-01-29T01:13:35.191Z,44.2
2018-01-29T01:14:35.152Z,44.2
2018-01-29T01:15:35.071Z,44.4
2018-01-29T01:16:35.000Z,44.4
2018-01-29T01:17:34.929Z,44.4
2018-01-29T01:18:34.841Z,44.6
2018-01-29T01:19:34.807Z,44.7
2018-01-29T01:20:34.702Z,44.8
2018-01-29T01:21:34.669Z,44.9
2018-01-29T01:22:34.585Z,44.9
2018-01-29T01:23:34.515Z,45.1
2018-01-29T01:24:34.461Z,45.1
2018-01-29T01:25:34.378Z,45.3
2018-01-29T01:26:34.306Z,45.3
2018-01-29T01:27:34.239Z,45.4
2018-01-29T01:28:34.168Z,45.4
2018-01-29T01:29:34.080Z,45.5
2018-01-29T01:30:34.049Z,45.6
2018-01-29T01:31:33.978Z,45.7
2018-01-29T01:32:33.892Z,45.8
2018-01-29T01:33:33.822Z,45.9
2018-01-29T01:34:33.754Z,45.9
2018-01-29T01:35:33.686Z,46
2018-01-29T01:36:33.631Z,46.1
2018-01-29T01:37:33.529Z,46.2
2018-01-29T01:38:33.478Z,46.3
2018-01-29T01:39:33.410Z,46.4
2018-01-29T01:40:33.318Z,46.4
2018-01-29T01:41:33.285Z,46.5
2018-01-29T01:42:33.180Z,46.6
2018-01-29T01:43:33.130Z,46.7
2018-01-29T01:44:33.063Z,46.8
2018-01-29T01:45:32.976Z,46.8
2018-01-29T01:46:32.943Z,46.9
2018-01-29T01:47:32.857Z,46.9
2018-01-29T01:48:32.785Z,47.1
2018-01-29T01:49:32.715Z,47.1
2018-01-29T01:50:32.627Z,47.2
2018-01-29T01:51:32.594Z,47.3
2018-01-29T01:52:32.509Z,47.4
2018-01-29T01:53:32.441Z,47.4
2018-01-29T01:54:32.351Z,47.5
2018-01-29T01:55:32.315Z,47.6
2018-01-29T01:56:32.245Z,47.7
2018-01-29T01:57:32.164Z,47.8
2018-01-29T01:58:32.091Z,47.8
2018-01-29T01:59:32.021Z,47.9
2018-01-29T02:00:31.959Z,47.9
2018-01-29T02:01:31.901Z,47.6
2018-01-29T02:02:31.795Z,47.4
2018-01-29T02:03:31.762Z,47.8
2018-01-29T02:04:31.675Z,47.6
2018-01-29T02:05:31.608Z,47.8
2018-01-29T02:06:31.553Z,47.8
2018-01-29T02:07:31.451Z,47.9
2018-01-29T02:08:31.400Z,48.2
2018-01-29T02:09:31.332Z,48.2
2018-01-29T02:10:31.261Z,48.3
2018-01-29T02:11:31.192Z,48.3
2018-01-29T02:12:31.103Z,48.4
2018-01-29T02:13:31.070Z,48.6
2018-01-29T02:14:30.967Z,48.6
2018-01-29T02:15:30.916Z,48.7
2018-01-29T02:16:30.848Z,48.8
2018-01-29T02:17:30.777Z,48.9
2018-01-29T02:18:30.710Z,48.9
2018-01-29T02:19:30.656Z,49
2018-01-29T02:20:30.570Z,49.1
2018-01-29T02:21:30.504Z,49.2
2018-01-29T02:22:30.472Z,49.3
2018-01-29T02:23:30.343Z,49.4
2018-01-29T02:24:30.311Z,49.4
2018-01-29T02:25:30.206Z,49.5
2018-01-29T02:26:30.155Z,49.6
2018-01-29T02:27:30.085Z,49.7
2018-01-29T02:28:30.019Z,49.8
2018-01-29T02:29:29.928Z,49.8
2018-01-29T02:30:29.896Z,49.9
2018-01-29T02:31:29.790Z,50
2018-01-29T02:32:29.758Z,50.1
2018-01-29T02:33:29.672Z,50.1
2018-01-29T02:34:29.601Z,50.3
2018-01-29T02:35:29.517Z,50.3
2018-01-29T02:36:29.514Z,50.4
2018-01-29T02:37:29.393Z,50.5
2018-01-29T02:38:29.325Z,50.6
2018-01-29T02:39:29.254Z,50.6
2018-01-29T02:40:29.167Z,50.7
2018-01-29T02:41:29.135Z,50.8
2018-01-29T02:42:29.047Z,50.9
2018-01-29T02:43:28.984Z,50.9
2018-01-29T02:44:28.879Z,51
2018-01-29T02:45:28.836Z,51.1
2018-01-29T02:46:28.723Z,51.1
2018-01-29T02:47:28.668Z,51.3
2018-01-29T02:48:28.586Z,51.3
2018-01-29T02:49:28.524Z,51.4
2018-01-29T02:50:28.409Z,51.5
2018-01-29T02:51:28.349Z,51.6
2018-01-29T02:52:28.275Z,51.6
2018-01-29T02:53:28.193Z,51.7
2018-01-29T02:54:28.130Z,51.8
2018-01-29T02:55:28.020Z,51.9
2018-01-29T02:56:27.936Z,51.9
2018-01-29T02:57:27.894Z,52
2018-01-29T02:58:27.799Z,52.1
2018-01-29T02:59:27.718Z,52.2
2018-01-29T03:00:27.640Z,52.3
2018-01-29T03:01:27.549Z,51.9
2018-01-29T03:02:27.500Z,51.8
2018-01-29T03:03:27.406Z,52.1
2018-01-29T03:04:27.326Z,51.9
2018-01-29T03:05:27.228Z,52
2018-01-29T03:06:27.186Z,52.1
2018-01-29T03:07:27.072Z,52.2
2018-01-29T03:08:27.013Z,52.4
2018-01-29T03:09:26.933Z,52.4
2018-01-29T03:10:26.859Z,52.6
2018-01-29T03:11:26.776Z,52.6
2018-01-29T03:12:26.679Z,52.7
2018-01-29T03:13:26.636Z,52.8
2018-01-29T03:14:26.521Z,52.9
2018-01-29T03:15:26.481Z,53
2018-01-29T03:16:26.387Z,53
2018-01-29T03:17:26.285Z,53.2
2018-01-29T03:18:26.245Z,53.2
2018-01-29T03:19:26.149Z,53.3
2018-01-29T03:20:26.074Z,53.4
2018-01-29T03:21:25.991Z,53.4
2018-01-29T03:22:25.913Z,53.6
2018-01-29T03:23:25.815Z,53.6
2018-01-29T03:24:25.772Z,53.8
2018-01-29T03:25:25.656Z,53.8
2018-01-29T03:26:25.598Z,53.8
2018-01-29T03:27:25.520Z,53.9
2018-01-29T03:28:25.440Z,54
2018-01-29T03:29:25.364Z,54.1
2018-01-29T03:30:25.300Z,54.2
2018-01-29T03:31:25.187Z,54.3
2018-01-29T03:32:25.127Z,54.3
2018-01-29T03:33:25.066Z,54.4
2018-01-29T03:34:24.952Z,54.5
2018-01-29T03:35:24.907Z,54.6
2018-01-29T03:36:24.792Z,54.6
2018-01-29T03:37:24.733Z,54.7
2018-01-29T03:38:24.656Z,54.8
2018-01-29T03:39:24.593Z,54.9
2018-01-29T03:40:24.496Z,54.9
2018-01-29T03:41:24.419Z,55
2018-01-29T03:42:24.340Z,55.1
2018-01-29T03:43:24.266Z,55.1
2018-01-29T03:44:24.203Z,55.3
2018-01-29T03:45:24.087Z,55.3
2018-01-29T03:46:24.026Z,55.4
2018-01-29T03:47:23.955Z,55.5
2018-01-29T03:48:23.854Z,55.6
2018-01-29T03:49:23.807Z,55.6
2018-01-29T03:50:23.693Z,55.7
2018-01-29T03:51:23.631Z,55.8
2018-01-29T03:52:23.556Z,55.8
2018-01-29T03:53:23.477Z,55.9
2018-01-29T03:54:23.397Z,55.9
2018-01-29T03:55:23.298Z,56
2018-01-29T03:56:23.223Z,56.1
2018-01-29T03:57:23.177Z,56.3
2018-01-29T03:58:23.082Z,56.3
2018-01-29T03:59:23.004Z,56.4
2018-01-29T04:00:22.906Z,56.4
2018-01-29T04:01:22.862Z,56.1
2018-01-29T04:02:22.771Z,55.9
2018-01-29T04:03:22.722Z,56.1
2018-01-29T04:04:22.610Z,55.9
2018-01-29T04:05:22.512Z,55.9
2018-01-29T04:06:22.470Z,55.9
2018-01-29T04:07:22.355Z,55.9
2018-01-29T04:08:22.315Z,56.1
2018-01-29T04:09:22.217Z,56.1
2018-01-29T04:10:22.136Z,55.9
2018-01-29T04:11:22.060Z,54.9
2018-01-29T04:12:21.961Z,54.1
2018-01-29T04:13:21.918Z,53.8
2018-01-29T04:14:21.823Z,52.7
2018-01-29T04:15:21.744Z,51.6
2018-01-29T04:16:21.646Z,50.5
2018-01-29T04:17:21.603Z,49.4
2018-01-29T04:18:21.490Z,48.3
2018-01-29T04:19:21.446Z,47.5
2018-01-29T04:20:21.350Z,47.3
2018-01-29T04:21:21.272Z,46.8
2018-01-29T04:22:21.196Z,46.9
2018-01-29T04:23:21.131Z,47.1
2018-01-29T04:24:21.017Z,47.1
2018-01-29T04:25:20.973Z,46.9
2018-01-29T04:26:20.860Z,46.9
2018-01-29T04:27:20.800Z,47
2018-01-29T04:28:20.737Z,47
2018-01-29T04:29:20.623Z,47.2
2018-01-29T04:30:20.564Z,46.9
2018-01-29T04:31:20.487Z,46.9
2018-01-29T04:32:20.411Z,47
2018-01-29T04:33:20.328Z,47.2
2018-01-29T04:34:20.265Z,47.1
2018-01-29T04:35:20.151Z,47
2018-01-29T04:36:20.093Z,47
2018-01-29T04:37:19.995Z,47.1
2018-01-29T04:38:19.950Z,47.1
2018-01-29T04:39:19.835Z,47.1
2018-01-29T04:40:19.793Z,47.1
2018-01-29T04:41:19.700Z,47
2018-01-29T04:42:19.619Z,47.1
2018-01-29T04:43:19.521Z,47.1
2018-01-29T04:44:19.462Z,47.1
2018-01-29T04:45:19.381Z,47
2018-01-29T04:46:19.304Z,46.3
2018-01-29T04:47:19.225Z,45.7
2018-01-29T04:48:19.128Z,46.1
2018-01-29T04:49:19.087Z,45.7
2018-01-29T04:50:19.008Z,45.7
2018-01-29T04:51:18.896Z,45.4
2018-01-29T04:52:18.833Z,45.6
2018-01-29T04:53:18.755Z,45.6
2018-01-29T04:54:18.676Z,45.5
2018-01-29T04:55:18.612Z,45.6
2018-01-29T04:56:18.498Z,45.5
2018-01-29T04:57:18.438Z,45.8
2018-01-29T04:58:18.362Z,45.7
2018-01-29T04:59:18.298Z,45.3
2018-01-29T05:00:18.225Z,44.1
2018-01-29T05:01:18.108Z,44
2018-01-29T05:02:18.046Z,43.4
2018-01-29T05:03:17.969Z,43.9
2018-01-29T05:04:17.887Z,43.4
2018-01-29T05:05:17.814Z,43.6
2018-01-29T05:06:17.796Z,43.8
2018-01-29T05:07:17.634Z,44.1
2018-01-29T05:08:17.555Z,44.2
2018-01-29T05:09:17.502Z,44.1
2018-01-29T05:10:17.420Z,44.4
2018-01-29T05:11:17.355Z,44.5
2018-01-29T05:12:17.241Z,44.8
2018-01-29T05:13:17.182Z,44.6
2018-01-29T05:14:17.106Z,44.6
2018-01-29T05:15:17.024Z,44.8
2018-01-29T05:16:16.963Z,45
2018-01-29T05:17:16.870Z,44.9
2018-01-29T05:18:16.770Z,45.1
2018-01-29T05:19:16.729Z,45.1
2018-01-29T05:20:16.632Z,45.3
2018-01-29T05:21:16.553Z,45.3
2018-01-29T05:22:16.474Z,45.3
2018-01-29T05:23:16.394Z,45.3
2018-01-29T05:24:16.335Z,45.3
2018-01-29T05:25:16.241Z,45.6
2018-01-29T05:26:16.162Z,45.7
2018-01-29T05:27:16.064Z,45.8
2018-01-29T05:28:16.020Z,45.8
2018-01-29T05:29:15.905Z,46
2018-01-29T05:30:15.862Z,46.2
2018-01-29T05:31:15.768Z,46.3
2018-01-29T05:32:15.705Z,46.4
2018-01-29T05:33:15.590Z,46.5
2018-01-29T05:34:15.531Z,46.6
2018-01-29T05:35:15.453Z,46.8
2018-01-29T05:36:15.374Z,46.5
2018-01-29T05:37:15.297Z,45.4
2018-01-29T05:38:15.234Z,45.2
2018-01-29T05:39:15.119Z,44.8
2018-01-29T05:40:15.063Z,44.9
2018-01-29T05:41:15.001Z,44.5
2018-01-29T05:42:14.883Z,44.3
2018-01-29T05:43:14.841Z,44.7
2018-01-29T05:44:14.727Z,44.2
2018-01-29T05:45:14.668Z,44.8
2018-01-29T05:46:14.591Z,44.5
2018-01-29T05:47:14.512Z,44.8
2018-01-29T05:48:14.413Z,44.9
2018-01-29T05:49:14.370Z,45.1
2018-01-29T05:50:14.260Z,45.3
2018-01-29T05:51:14.216Z,45.2
2018-01-29T05:52:14.124Z,45.5
2018-01-29T05:53:14.039Z,45.4
2018-01-29T05:54:13.944Z,45
2018-01-29T05:55:13.898Z,45
2018-01-29T05:56:13.803Z,44.8
2018-01-29T05:57:13.729Z,42.9
2018-01-29T05:58:13.652Z,42.5
2018-01-29T05:59:13.549Z,41.8
2018-01-29T06:00:13.506Z,41.4
2018-01-29T06:01:13.394Z,41.3
2018-01-29T06:02:13.351Z,39.9
2018-01-29T06:03:13.256Z,40.1
2018-01-29T06:04:13.186Z,40.3
2018-01-29T06:05:13.098Z,40.4
2018-01-29T06:06:13.001Z,40.4
2018-01-29T06:07:12.958Z,40.6
2018-01-29T06:08:12.867Z,40.9
2018-01-29T06:09:12.784Z,41
2018-01-29T06:10:12.686Z,41.1
2018-01-29T06:11:12.644Z,40.9
2018-01-29T06:12:12.567Z,40.9
2018-01-29T06:13:12.473Z,40.9
2018-01-29T06:14:12.393Z,40.7
2018-01-29T06:15:12.316Z,40.6
2018-01-29T06:16:12.237Z,40.6
2018-01-29T06:17:12.174Z,41.1
2018-01-29T06:18:12.061Z,41.1
2018-01-29T06:19:12.027Z,41.4
2018-01-29T06:20:11.927Z,41.4
2018-01-29T06:21:11.845Z,41.6
2018-01-29T06:22:11.788Z,41.8
2018-01-29T06:23:11.670Z,41.8
2018-01-29T06:24:11.609Z,42.1
2018-01-29T06:25:11.534Z,42.1
2018-01-29T06:26:11.453Z,42.4
2018-01-29T06:27:11.376Z,42.4
2018-01-29T06:28:11.277Z,42.6
2018-01-29T06:29:11.220Z,42.8
2018-01-29T06:30:11.138Z,42.9
2018-01-29T06:31:11.042Z,43.1
2018-01-29T06:32:10.999Z,43.1
2018-01-29T06:33:10.885Z,43.3
2018-01-29T06:34:10.844Z,43.4
2018-01-29T06:35:10.747Z,43.6
2018-01-29T06:36:10.652Z,43.7
2018-01-29T06:37:10.607Z,43.8
2018-01-29T06:38:10.513Z,43.9
2018-01-29T06:39:10.436Z,44
2018-01-29T06:40:10.356Z,44.2
2018-01-29T06:41:10.275Z,44.3
2018-01-29T06:42:10.179Z,44.4
2018-01-29T06:43:10.136Z,44.6
2018-01-29T06:44:10.022Z,44.6
2018-01-29T06:45:09.963Z,44.8
2018-01-29T06:46:09.884Z,44.9
2018-01-29T06:47:09.805Z,45
2018-01-29T06:48:09.728Z,45.1
2018-01-29T06:49:09.665Z,45.3
2018-01-29T06:50:09.551Z,45.4
2018-01-29T06:51:09.491Z,45.4
2018-01-29T06:52:09.433Z,45.6
2018-01-29T06:53:09.318Z,45.7
2018-01-29T06:54:09.277Z,45.8
2018-01-29T06:55:09.160Z,45.9
2018-01-29T06:56:09.150Z,46.1
2018-01-29T06:57:09.022Z,46.2
2018-01-29T06:58:08.991Z,46.3
2018-01-29T06:59:08.865Z,46.4
2018-01-29T07:00:08.765Z,46.5
2018-01-29T07:01:08.722Z,46.3
2018-01-29T07:02:08.640Z,45.8
2018-01-29T07:03:08.550Z,46.3
2018-01-29T07:04:08.471Z,46.2
2018-01-29T07:05:08.409Z,46.4
2018-01-29T07:06:08.295Z,46.5
2018-01-29T07:07:08.241Z,46.6
2018-01-29T07:08:08.156Z,46.9
2018-01-29T07:09:08.080Z,46.9
2018-01-29T07:10:08.016Z,47.2
2018-01-29T07:11:07.903Z,47.3
2018-01-29T07:12:07.826Z,47.6
2018-01-29T07:13:07.782Z,47.6
2018-01-29T07:14:07.688Z,47.6
2018-01-29T07:15:07.607Z,47.8
2018-01-29T07:16:07.530Z,47.9
2018-01-29T07:17:07.434Z,48.2
2018-01-29T07:18:07.390Z,48.2
2018-01-29T07:19:07.295Z,48.4
2018-01-29T07:20:07.215Z,48.5
2018-01-29T07:21:07.120Z,48.7
2018-01-29T07:22:07.075Z,48.8
2018-01-29T07:23:06.961Z,48.9
2018-01-29T07:24:06.903Z,49
2018-01-29T07:25:06.826Z,48.6
2018-01-29T07:26:06.745Z,48.3
2018-01-29T07:27:06.667Z,48.8
2018-01-29T07:28:06.605Z,48.8
2018-01-29T07:29:06.491Z,49.1
2018-01-29T07:30:06.448Z,49.1
2018-01-29T07:31:06.334Z,49.4
2018-01-29T07:32:06.283Z,49.6
2018-01-29T07:33:06.212Z,49.6
2018-01-29T07:34:06.100Z,49.7
2018-01-29T07:35:06.040Z,49.8
2018-01-29T07:36:05.962Z,50
2018-01-29T07:37:05.885Z,50.1
2018-01-29T07:38:05.804Z,50.3
2018-01-29T07:39:05.741Z,50.4
2018-01-29T07:40:05.636Z,50.4
2018-01-29T07:41:05.584Z,50.6
2018-01-29T07:42:05.494Z,50.6
2018-01-29T07:43:05.424Z,50.7
2018-01-29T07:44:05.387Z,50.7
2018-01-29T07:45:05.254Z,50.8
2018-01-29T07:46:05.159Z,50.9
2018-01-29T07:47:05.115Z,51
2018-01-29T07:48:05.018Z,50.9
2018-01-29T07:49:04.921Z,51.1
2018-01-29T07:50:04.880Z,51.2
2018-01-29T07:51:04.764Z,51.3
2018-01-29T07:52:04.729Z,51.4
2018-01-29T07:53:04.644Z,51.4
2018-01-29T07:54:04.578Z,51.5
2018-01-29T07:55:04.506Z,51.6
2018-01-29T07:56:04.415Z,51.7
2018-01-29T07:57:04.415Z,51.8
2018-01-29T07:58:04.277Z,51.8
2018-01-29T07:59:04.244Z,51.9
2018-01-29T08:00:04.159Z,52.1
2018-01-29T08:01:04.088Z,51.9
2018-01-29T08:02:04.001Z,51.6
2018-01-29T08:03:03.968Z,52.1
2018-01-29T08:04:03.880Z,52
2018-01-29T08:05:03.822Z,52
2018-01-29T08:06:03.742Z,52.2
2018-01-29T08:07:03.659Z,52.1
2018-01-29T08:08:03.622Z,52.4
2018-01-29T08:09:03.558Z,52.6
2018-01-29T08:10:03.449Z,52.6
2018-01-29T08:11:03.398Z,52.7
2018-01-29T08:12:03.326Z,52.4
2018-01-29T08:13:03.271Z,52.5
2018-01-29T08:14:03.207Z,52.8
2018-01-29T08:15:03.103Z,52.6
2018-01-29T08:16:03.050Z,52.7
2018-01-29T08:17:02.992Z,52.9
2018-01-29T08:18:02.930Z,53
2018-01-29T08:19:02.824Z,53.2
2018-01-29T08:20:02.755Z,53.3
2018-01-29T08:21:02.702Z,53.4
2018-01-29T08:22:02.637Z,53.4
2018-01-29T08:23:02.547Z,53.7
2018-01-29T08:24:02.521Z,53.8
2018-01-29T08:25:02.428Z,53.9
2018-01-29T08:26:02.361Z,54
2018-01-29T08:27:02.296Z,54.1
2018-01-29T08:28:02.210Z,54.3
2018-01-29T08:29:02.169Z,54.4
2018-01-29T08:30:02.084Z,54.6
2018-01-29T08:31:02.012Z,54.7
2018-01-29T08:32:01.931Z,54.8
2018-01-29T08:33:01.892Z,55
2018-01-29T08:34:01.786Z,55.1
2018-01-29T08:35:01.752Z,55.3
2018-01-29T08:36:01.667Z,55.4
2018-01-29T08:37:01.599Z,55.5
2018-01-29T08:38:01.529Z,55.6
2018-01-29T08:39:01.480Z,55.8
2018-01-29T08:40:01.371Z,55.9
2018-01-29T08:41:01.338Z,56.1
2018-01-29T08:42:01.232Z,56.2
2018-01-29T08:43:01.184Z,56.3
2018-01-29T08:44:01.129Z,56.4
2018-01-29T08:45:01.023Z,56.6
2018-01-29T08:46:00.978Z,56.8
2018-01-29T08:47:00.905Z,56.9
2018-01-29T08:48:00.846Z,57.1
2018-01-29T08:49:00.767Z,57.2
2018-01-29T08:50:00.721Z,57.3
2018-01-29T08:51:00.607Z,57.4
2018-01-29T08:52:00.539Z,57.6
2018-01-29T08:53:00.487Z,57.7
2018-01-29T08:54:00.430Z,57.9
2018-01-29T08:55:00.349Z,58
2018-01-29T08:56:00.283Z,58.1
2018-01-29T08:57:00.231Z,58.3
2018-01-29T08:58:00.123Z,58.4
2018-01-29T08:59:00.080Z,58.5
2018-01-29T09:00:00.035Z,58.8
2018-01-29T09:00:59.915Z,58.8
2018-01-29T09:01:59.884Z,58.8
2018-01-29T09:02:59.777Z,59.1
2018-01-29T09:03:59.728Z,59.2
2018-01-29T09:04:59.660Z,59.2
2018-01-29T09:05:59.591Z,59.3
2018-01-29T09:06:59.522Z,59.4
2018-01-29T09:07:59.471Z,59.6
2018-01-29T09:08:59.364Z,59.8
2018-01-29T09:09:59.332Z,59.9
2018-01-29T09:10:59.245Z,60
2018-01-29T09:11:59.179Z,60.1
2018-01-29T09:12:59.092Z,60.3
2018-01-29T09:13:59.055Z,60.4
2018-01-29T09:14:58.970Z,60.6
2018-01-29T09:15:58.901Z,60.7
2018-01-29T09:16:58.830Z,60.8
2018-01-29T09:17:58.745Z,60.9
2018-01-29T09:18:58.713Z,61.1
2018-01-29T09:19:58.623Z,61.2
2018-01-29T09:20:58.560Z,61.4
2018-01-29T09:21:58.505Z,61.5
2018-01-29T09:22:58.398Z,61.6
2018-01-29T09:23:58.327Z,61.8
2018-01-29T09:24:58.278Z,61.9
2018-01-29T09:25:58.210Z,62
2018-01-29T09:26:58.159Z,62.2
2018-01-29T09:27:58.052Z,62.3
2018-01-29T09:28:58.002Z,62.4
2018-01-29T09:29:57.933Z,62.6
2018-01-29T09:30:57.863Z,62.7
2018-01-29T09:31:57.812Z,62.8
2018-01-29T09:32:57.707Z,62.9
2018-01-29T09:33:57.640Z,63.1
2018-01-29T09:34:57.606Z,63.2
2018-01-29T09:35:57.520Z,63.4
2018-01-29T09:36:57.449Z,63.4
2018-01-29T09:37:57.381Z,63.6
2018-01-29T09:38:57.311Z,63.7
2018-01-29T09:39:57.260Z,63.8
2018-01-29T09:40:57.176Z,63.8
2018-01-29T09:41:57.105Z,64
2018-01-29T09:42:57.017Z,64.1
2018-01-29T09:43:56.984Z,64.1
2018-01-29T09:44:56.881Z,64.3
2018-01-29T09:45:56.846Z,64.4
2018-01-29T09:46:56.814Z,64.4
2018-01-29T09:47:56.692Z,64.5
2018-01-29T09:48:56.620Z,64.6
2018-01-29T09:49:56.533Z,64.7
2018-01-29T09:50:56.501Z,64.8
2018-01-29T09:51:56.394Z,64.8
2018-01-29T09:52:56.460Z,64.9
2018-01-29T09:53:56.277Z,64.9
2018-01-29T09:54:56.206Z,64.9
2018-01-29T09:55:56.156Z,65
2018-01-29T09:56:56.071Z,65.1
2018-01-29T09:57:55.999Z,65.1
2018-01-29T09:58:56.095Z,65.1
2018-01-29T09:59:55.860Z,65.2
2018-01-29T10:00:55.772Z,65.3
2018-01-29T10:01:55.742Z,65.3
2018-01-29T10:02:55.671Z,65.3
2018-01-29T10:03:55.584Z,65.4
2018-01-29T10:04:55.517Z,65.3
2018-01-29T10:05:55.445Z,65.4
2018-01-29T10:06:55.381Z,65.4
2018-01-29T10:07:55.324Z,65.5
2018-01-29T10:08:55.220Z,65.5
2018-01-29T10:09:55.172Z,65.6
2018-01-29T10:10:55.103Z,65.6
2018-01-29T10:11:55.013Z,65.6
2018-01-29T10:12:54.982Z,65.7
2018-01-29T10:13:54.875Z,65.7
2018-01-29T10:14:54.824Z,65.8
2018-01-29T10:15:54.756Z,65.8
2018-01-29T10:16:54.667Z,65.8
2018-01-29T10:17:54.633Z,65.9
2018-01-29T10:18:54.549Z,65.9
2018-01-29T10:19:54.478Z,65.9
2018-01-29T10:20:54.410Z,65.9
2018-01-29T10:21:54.322Z,66
2018-01-29T10:22:54.290Z,66.1
2018-01-29T10:23:54.202Z,66.1
2018-01-29T10:24:54.133Z,66.1
2018-01-29T10:25:54.047Z,66.3
2018-01-29T10:26:54.012Z,66.3
2018-01-29T10:27:53.945Z,66.3
2018-01-29T10:28:53.859Z,66.4
2018-01-29T10:29:53.787Z,66.4
2018-01-29T10:30:53.718Z,66.6
2018-01-29T10:31:53.652Z,66.6
2018-01-29T10:32:53.596Z,66.7
2018-01-29T10:33:53.494Z,66.8
2018-01-29T10:34:53.481Z,66.8
2018-01-29T10:35:53.378Z,66.9
2018-01-29T10:36:53.305Z,66.9
2018-01-29T10:37:53.251Z,66.9
2018-01-29T10:38:53.145Z,67.1
2018-01-29T10:39:53.097Z,67.2
2018-01-29T10:40:53.028Z,67.3
2018-01-29T10:41:52.962Z,67.3
2018-01-29T10:42:52.890Z,67.3
2018-01-29T10:43:52.803Z,67.4
2018-01-29T10:44:52.769Z,67.5
2018-01-29T10:45:52.662Z,67.6
2018-01-29T10:46:52.611Z,67.6
2018-01-29T10:47:52.544Z,67.7
2018-01-29T10:48:52.476Z,67.8
2018-01-29T10:49:52.408Z,67.9
2018-01-29T10:50:52.360Z,67.9
2018-01-29T10:51:52.267Z,68
2018-01-29T10:52:52.199Z,68.1
2018-01-29T10:53:52.144Z,68.1
2018-01-29T10:54:52.040Z,68.3
2018-01-29T10:55:52.007Z,68.3
2018-01-29T10:56:51.903Z,68.4
2018-01-29T10:57:51.852Z,68.5
2018-01-29T10:58:51.784Z,68.6
2018-01-29T10:59:51.714Z,68.7
2018-01-29T11:00:51.625Z,68.8
2018-01-29T11:01:51.602Z,68.8
2018-01-29T11:02:51.486Z,68.9
2018-01-29T11:03:51.453Z,69
2018-01-29T11:04:51.369Z,69.1
2018-01-29T11:05:51.299Z,69.2
2018-01-29T11:06:51.210Z,69.3
2018-01-29T11:07:51.166Z,69.3
2018-01-29T11:08:51.091Z,69.4
2018-01-29T11:09:51.027Z,69.5
2018-01-29T11:10:50.953Z,69.6
2018-01-29T11:11:50.868Z,69.6
2018-01-29T11:12:50.832Z,69.7
2018-01-29T11:13:50.748Z,69.8
2018-01-29T11:14:50.681Z,69.9
2018-01-29T11:15:50.626Z,69.9
2018-01-29T11:16:50.520Z,70
2018-01-29T11:17:50.486Z,70.1
2018-01-29T11:18:50.401Z,70.2
2018-01-29T11:19:50.331Z,70.2
2018-01-29T11:20:50.243Z,70.3
2018-01-29T11:21:50.209Z,70.4
2018-01-29T11:22:50.129Z,70.4
2018-01-29T11:23:50.057Z,70.5
2018-01-29T11:24:49.987Z,70.6
2018-01-29T11:25:49.898Z,70.7
2018-01-29T11:26:49.863Z,70.7
2018-01-29T11:27:49.798Z,70.8
2018-01-29T11:28:49.690Z,70.8
2018-01-29T11:29:49.641Z,70.9
2018-01-29T11:30:49.574Z,70.9
2018-01-29T11:31:49.504Z,71
2018-01-29T11:32:49.448Z,71
2018-01-29T11:33:49.345Z,71.1
2018-01-29T11:34:49.291Z,71.1
2018-01-29T11:35:49.227Z,71.2
2018-01-29T11:36:49.172Z,71.2
2018-01-29T11:37:49.069Z,71.3
2018-01-29T11:38:49.040Z,71.3
2018-01-29T11:39:48.948Z,71.4
2018-01-29T11:40:48.878Z,71.4
2018-01-29T11:41:48.809Z,71.4
2018-01-29T11:42:48.740Z,71.5
2018-01-29T11:43:48.688Z,71.5
2018-01-29T11:44:48.583Z,71.6
2018-01-29T11:45:48.550Z,71.6
2018-01-29T11:46:48.443Z,71.7
2018-01-29T11:47:48.394Z,71.8
2018-01-29T11:48:48.344Z,71.8
2018-01-29T11:49:48.237Z,71.9
2018-01-29T11:50:48.192Z,71.9
2018-01-29T11:51:48.118Z,71.9
2018-01-29T11:52:48.048Z,72
2018-01-29T11:53:47.980Z,72.1
2018-01-29T11:54:47.927Z,72.1
2018-01-29T11:55:47.822Z,72.2
2018-01-29T11:56:47.788Z,72.3
2018-01-29T11:57:47.702Z,72.3
2018-01-29T11:58:47.633Z,72.4
2018-01-29T11:59:47.569Z,72.4
2018-01-29T12:00:47.503Z,72.5
2018-01-29T12:01:47.410Z,72.5
2018-01-29T12:02:47.373Z,72.6
2018-01-29T12:03:47.291Z,72.7
2018-01-29T12:04:47.198Z,72.7
2018-01-29T12:05:47.164Z,72.8
2018-01-29T12:06:47.061Z,72.8
2018-01-29T12:07:47.029Z,72.8
2018-01-29T12:08:46.943Z,72.9
2018-01-29T12:09:46.871Z,72.9
2018-01-29T12:10:46.819Z,72.9
2018-01-29T12:11:46.732Z,72.9
2018-01-29T12:12:46.671Z,73
2018-01-29T12:13:46.604Z,73
2018-01-29T12:14:46.528Z,73.1
2018-01-29T12:15:46.473Z,73.1
2018-01-29T12:16:46.374Z,73.1
2018-01-29T12:17:46.318Z,73.2
2018-01-29T12:18:46.254Z,73.2
2018-01-29T12:19:46.161Z,73.3
2018-01-29T12:20:46.127Z,73.3
2018-01-29T12:21:46.022Z,73.3
2018-01-29T12:22:45.978Z,73.4
2018-01-29T12:23:45.906Z,73.4
2018-01-29T12:24:45.836Z,73.5
2018-01-29T12:25:45.764Z,73.6
2018-01-29T12:26:45.677Z,73.6
2018-01-29T12:27:45.609Z,73.6
2018-01-29T12:28:45.577Z,73.7
2018-01-29T12:29:45.489Z,73.7
2018-01-29T12:30:45.422Z,73.8
2018-01-29T12:31:45.335Z,73.8
2018-01-29T12:32:45.298Z,73.9
2018-01-29T12:33:45.212Z,73.9
2018-01-29T12:34:45.142Z,74
2018-01-29T12:35:45.073Z,74
2018-01-29T12:36:44.985Z,74.1
2018-01-29T12:37:44.951Z,74.1
2018-01-29T12:38:44.847Z,74.2
2018-01-29T12:39:44.813Z,74.2
2018-01-29T12:40:44.728Z,74.3
2018-01-29T12:41:44.657Z,74.3
2018-01-29T12:42:44.589Z,74.4
2018-01-29T12:43:44.500Z,74.4
2018-01-29T12:44:44.468Z,74.4
2018-01-29T12:45:44.383Z,74.5
2018-01-29T12:46:44.312Z,74.6
2018-01-29T12:47:44.224Z,74.6
2018-01-29T12:48:44.192Z,74.6
2018-01-29T12:49:44.084Z,74.6
2018-01-29T12:50:44.052Z,74.7
2018-01-29T12:51:43.967Z,74.8
2018-01-29T12:52:43.897Z,74.8
2018-01-29T12:53:43.832Z,74.9
2018-01-29T12:54:43.778Z,74.9
2018-01-29T12:55:43.671Z,74.9
2018-01-29T12:56:43.637Z,75
2018-01-29T12:57:43.530Z,75.1
2018-01-29T12:58:43.482Z,75.1
2018-01-29T12:59:43.428Z,75.1
2018-01-29T13:00:43.324Z,75.2
2018-01-29T13:01:43.276Z,75.2
2018-01-29T13:02:43.206Z,75.3
2018-01-29T13:03:43.136Z,75.3
2018-01-29T13:04:43.069Z,75.3
2018-01-29T13:05:43.014Z,75.3
2018-01-29T13:06:42.912Z,75.4
2018-01-29T13:07:42.859Z,75.4
2018-01-29T13:08:42.772Z,75.4
2018-01-29T13:09:42.739Z,75.5
2018-01-29T13:10:42.635Z,75.5
2018-01-29T13:11:42.602Z,75.6
2018-01-29T13:12:42.515Z,75.6
2018-01-29T13:13:42.446Z,75.6
2018-01-29T13:14:42.358Z,75.6
2018-01-29T13:16:42.235Z,75.7
2018-01-29T13:17:42.151Z,75.8
2018-01-29T13:18:42.077Z,75.8
2018-01-29T13:19:41.995Z,75.8
2018-01-29T13:20:41.897Z,75.8
2018-01-29T13:21:41.856Z,75.9
2018-01-29T13:22:41.775Z,75.9